sensor_id;sensor_type;location;lat;lon;timestamp;pressure;altitude;pressure_sealevel;temperature;humidity
80128;BME280;69440;52.118;5.408;2023-11-22T00:00:59;102964.25;;;4.68;100.00
80128;BME280;69440;52.118;5.408;2023-11-22T00:03:25;102957.16;;;4.64;100.00
80128;BME280;69440;52.118;5.408;2023-11-22T00:05:52;102957.16;;;4.63;100.00
80128;BME280;69440;52.118;5.408;2023-11-22T00:08:18;102954.47;;;4.42;100.00
80128;BME280;69440;52.118;5.408;2023-11-22T00:10:45;102964.25;;;4.43;100.00
80128;BME280;69440;52.118;5.408;2023-11-22T00:13:11;102971.34;;;4.47;100.00
80128;BME280;69440;52.118;5.408;2023-11-22T00:15:38;102972.22;;;4.46;100.00
80128;BME280;69440;52.118;5.408;2023-11-22T00:18:04;102982.88;;;4.44;100.00
80128;BME280;69440;52.118;5.408;2023-11-22T00:20:31;102989.97;;;4.47;100.00
80128;BME280;69440;52.118;5.408;2023-11-22T00:22:57;102989.97;;;4.44;100.00
80128;BME280;69440;52.118;5.408;2023-11-22T00:25:24;102990.88;;;4.43;100.00
80128;BME280;69440;52.118;5.408;2023-11-22T00:27:51;102995.31;;;4.42;100.00
80128;BME280;69440;52.118;5.408;2023-11-22T00:30:17;102995.31;;;4.45;100.00
80128;BME280;69440;52.118;5.408;2023-11-22T00:32:44;102992.63;;;4.47;100.00
80128;BME280;69440;52.118;5.408;2023-11-22T00:35:10;103000.63;;;4.51;100.00
80128;BME280;69440;52.118;5.408;2023-11-22T00:37:37;103000.63;;;4.51;100.00
80128;BME280;69440;52.118;5.408;2023-11-22T00:40:04;102998.84;;;4.52;100.00
80128;BME280;69440;52.118;5.408;2023-11-22T00:42:40;102989.09;;;4.49;100.00
80128;BME280;69440;52.118;5.408;2023-11-22T00:45:09;102995.31;;;4.50;100.00
80128;BME280;69440;52.118;5.408;2023-11-22T00:47:36;102991.75;;;4.51;100.00
80128;BME280;69440;52.118;5.408;2023-11-22T00:50:03;102991.75;;;4.51;100.00
80128;BME280;69440;52.118;5.408;2023-11-22T00:52:31;103003.28;;;4.50;100.00
80128;BME280;69440;52.118;5.408;2023-11-22T00:54:57;102997.97;;;4.39;100.00
80128;BME280;69440;52.118;5.408;2023-11-22T00:57:24;102993.53;;;4.40;100.00
80128;BME280;69440;52.118;5.408;2023-11-22T00:59:50;102998.84;;;4.40;100.00
80128;BME280;69440;52.118;5.408;2023-11-22T01:02:16;103003.28;;;4.42;100.00
80128;BME280;69440;52.118;5.408;2023-11-22T01:04:43;103014.81;;;4.33;100.00
80128;BME280;69440;52.118;5.408;2023-11-22T01:07:09;103019.22;;;4.28;100.00
80128;BME280;69440;52.118;5.408;2023-11-22T01:09:36;103022.75;;;4.27;100.00
80128;BME280;69440;52.118;5.408;2023-11-22T01:12:02;103033.44;;;4.29;100.00
80128;BME280;69440;52.118;5.408;2023-11-22T01:14:29;103038.72;;;4.21;100.00
80128;BME280;69440;52.118;5.408;2023-11-22T01:16:56;103048.47;;;4.16;100.00
80128;BME280;69440;52.118;5.408;2023-11-22T01:19:22;103052.88;;;4.13;100.00
80128;BME280;69440;52.118;5.408;2023-11-22T01:21:49;103059.97;;;4.06;100.00
80128;BME280;69440;52.118;5.408;2023-11-22T01:24:16;103059.97;;;4.03;100.00
80128;BME280;69440;52.118;5.408;2023-11-22T01:26:42;103061.66;;;3.87;100.00
80128;BME280;69440;52.118;5.408;2023-11-22T01:29:09;103061.66;;;3.87;100.00
80128;BME280;69440;52.118;5.408;2023-11-22T01:31:38;103068.75;;;3.90;100.00
80128;BME280;69440;52.118;5.408;2023-11-22T01:34:05;103076.72;;;3.90;100.00
80128;BME280;69440;52.118;5.408;2023-11-22T01:36:34;103070.50;;;3.83;100.00
80128;BME280;69440;52.118;5.408;2023-11-22T01:39:00;103070.47;;;3.77;100.00
80128;BME280;69440;52.118;5.408;2023-11-22T01:41:27;103077.56;;;3.75;100.00
80128;BME280;69440;52.118;5.408;2023-11-22T01:43:56;103081.06;;;3.69;100.00
80128;BME280;69440;52.118;5.408;2023-11-22T01:46:23;103071.28;;;3.64;100.00
80128;BME280;69440;52.118;5.408;2023-11-22T01:48:52;103073.94;;;3.65;100.00
80128;BME280;69440;52.118;5.408;2023-11-22T01:51:23;103064.19;;;3.66;100.00
80128;BME280;69440;52.118;5.408;2023-11-22T01:53:53;103063.28;;;3.59;100.00
80128;BME280;69440;52.118;5.408;2023-11-22T01:56:22;103065.06;;;3.62;100.00
80128;BME280;69440;52.118;5.408;2023-11-22T01:58:49;103062.41;;;3.63;100.00
80128;BME280;69440;52.118;5.408;2023-11-22T02:01:16;103056.19;;;3.61;100.00
80128;BME280;69440;52.118;5.408;2023-11-22T02:03:42;103065.06;;;3.63;100.00
80128;BME280;69440;52.118;5.408;2023-11-22T02:06:11;103064.13;;;3.55;100.00
80128;BME280;69440;52.118;5.408;2023-11-22T02:08:37;103068.56;;;3.58;100.00
80128;BME280;69440;52.118;5.408;2023-11-22T02:11:05;103074.75;;;3.51;100.00
80128;BME280;69440;52.118;5.408;2023-11-22T02:13:32;103073.84;;;3.49;100.00
80128;BME280;69440;52.118;5.408;2023-11-22T02:15:58;103076.50;;;3.47;100.00
80128;BME280;69440;52.118;5.408;2023-11-22T02:18:27;103078.25;;;3.43;100.00
80128;BME280;69440;52.118;5.408;2023-11-22T02:20:54;103068.50;;;3.44;100.00
80128;BME280;69440;52.118;5.408;2023-11-22T02:23:21;103073.81;;;3.41;100.00
80128;BME280;69440;52.118;5.408;2023-11-22T02:25:48;103078.22;;;3.40;100.00
80128;BME280;69440;52.118;5.408;2023-11-22T02:28:15;103082.63;;;3.37;100.00
80128;BME280;69440;52.118;5.408;2023-11-22T02:30:42;103072.00;;;3.37;100.00
80128;BME280;69440;52.118;5.408;2023-11-22T02:33:09;103068.50;;;3.41;100.00
80128;BME280;69440;52.118;5.408;2023-11-22T02:35:35;103070.19;;;3.34;100.00
80128;BME280;69440;52.118;5.408;2023-11-22T02:38:02;103066.59;;;3.28;100.00
80128;BME280;69440;52.118;5.408;2023-11-22T02:40:28;103065.75;;;3.30;100.00
80128;BME280;69440;52.118;5.408;2023-11-22T02:42:55;103057.78;;;3.36;100.00
80128;BME280;69440;52.118;5.408;2023-11-22T02:45:27;103059.53;;;3.30;100.00
80128;BME280;69440;52.118;5.408;2023-11-22T02:47:54;103056.84;;;3.25;100.00
80128;BME280;69440;52.118;5.408;2023-11-22T02:50:21;103065.69;;;3.21;100.00
80128;BME280;69440;52.118;5.408;2023-11-22T02:52:48;103061.22;;;3.14;100.00
80128;BME280;69440;52.118;5.408;2023-11-22T02:55:14;103054.13;;;3.15;100.00
80128;BME280;69440;52.118;5.408;2023-11-22T02:57:41;103057.63;;;3.10;100.00
80128;BME280;69440;52.118;5.408;2023-11-22T03:00:08;103043.41;;;3.05;100.00
80128;BME280;69440;52.118;5.408;2023-11-22T03:02:36;103056.66;;;3.02;100.00
80128;BME280;69440;52.118;5.408;2023-11-22T03:05:04;103056.66;;;3.01;100.00
80128;BME280;69440;52.118;5.408;2023-11-22T03:07:30;103061.94;;;2.96;100.00
80128;BME280;69440;52.118;5.408;2023-11-22T03:09:57;103052.19;;;2.94;100.00
80128;BME280;69440;52.118;5.408;2023-11-22T03:12:26;103061.03;;;2.96;100.00
80128;BME280;69440;52.118;5.408;2023-11-22T03:14:53;103063.69;;;2.93;100.00
80128;BME280;69440;52.118;5.408;2023-11-22T03:17:24;103076.00;;;2.85;100.00
80128;BME280;69440;52.118;5.408;2023-11-22T03:19:51;103071.59;;;2.85;100.00
80128;BME280;69440;52.118;5.408;2023-11-22T03:22:18;103075.06;;;2.78;100.00
80128;BME280;69440;52.118;5.408;2023-11-22T03:24:44;103090.13;;;2.79;100.00
80128;BME280;69440;52.118;5.408;2023-11-22T03:27:11;103102.44;;;2.74;100.00
80128;BME280;69440;52.118;5.408;2023-11-22T03:29:37;103096.22;;;2.72;100.00
80128;BME280;69440;52.118;5.408;2023-11-22T03:32:04;103100.66;;;2.73;100.00
80128;BME280;69440;52.118;5.408;2023-11-22T03:34:31;103112.16;;;2.72;100.00
80128;BME280;69440;52.118;5.408;2023-11-22T03:36:57;103119.25;;;2.74;100.00
80128;BME280;69440;52.118;5.408;2023-11-22T03:39:24;103129.84;;;2.71;100.00
80128;BME280;69440;52.118;5.408;2023-11-22T03:41:51;103131.59;;;2.69;100.00
80128;BME280;69440;52.118;5.408;2023-11-22T03:44:17;103130.72;;;2.70;100.00
80128;BME280;69440;52.118;5.408;2023-11-22T03:46:44;103133.38;;;2.72;100.00
80128;BME280;69440;52.118;5.408;2023-11-22T03:49:10;103132.50;;;2.73;100.00
80128;BME280;69440;52.118;5.408;2023-11-22T03:51:40;103144.00;;;2.73;100.00
80128;BME280;69440;52.118;5.408;2023-11-22T03:54:07;103148.44;;;2.74;100.00
80128;BME280;69440;52.118;5.408;2023-11-22T03:56:33;103154.72;;;2.78;100.00
80128;BME280;69440;52.118;5.408;2023-11-22T03:59:00;103153.81;;;2.76;100.00
80128;BME280;69440;52.118;5.408;2023-11-22T04:01:26;103150.31;;;2.82;100.00
80128;BME280;69440;52.118;5.408;2023-11-22T04:03:53;103160.91;;;2.78;100.00
80128;BME280;69440;52.118;5.408;2023-11-22T04:06:20;103163.56;;;2.77;100.00
80128;BME280;69440;52.118;5.408;2023-11-22T04:08:47;103174.19;;;2.77;100.00
80128;BME280;69440;52.118;5.408;2023-11-22T04:11:13;103171.56;;;2.83;100.00
80128;BME280;69440;52.118;5.408;2023-11-22T04:13:40;103171.56;;;2.80;100.00
80128;BME280;69440;52.118;5.408;2023-11-22T04:16:07;103181.25;;;2.76;100.00
80128;BME280;69440;52.118;5.408;2023-11-22T04:18:35;103168.88;;;2.77;100.00
80128;BME280;69440;52.118;5.408;2023-11-22T04:21:04;103177.72;;;2.79;100.00
80128;BME280;69440;52.118;5.408;2023-11-22T04:23:32;103170.66;;;2.79;100.00
80128;BME280;69440;52.118;5.408;2023-11-22T04:26:01;103172.44;;;2.79;100.00
80128;BME280;69440;52.118;5.408;2023-11-22T04:28:28;103180.41;;;2.82;100.00
80128;BME280;69440;52.118;5.408;2023-11-22T04:30:59;103177.81;;;2.87;100.00
80128;BME280;69440;52.118;5.408;2023-11-22T04:33:25;103180.47;;;2.87;100.00
80128;BME280;69440;52.118;5.408;2023-11-22T04:35:54;103189.31;;;2.87;100.00
80128;BME280;69440;52.118;5.408;2023-11-22T04:38:21;103191.09;;;2.87;100.00
80128;BME280;69440;52.118;5.408;2023-11-22T04:40:48;103190.22;;;2.88;100.00
80128;BME280;69440;52.118;5.408;2023-11-22T04:43:14;103190.22;;;2.89;100.00
80128;BME280;69440;52.118;5.408;2023-11-22T04:45:41;103188.44;;;2.88;100.00
80128;BME280;69440;52.118;5.408;2023-11-22T04:48:07;103195.53;;;2.89;100.00
80128;BME280;69440;52.118;5.408;2023-11-22T04:50:34;103189.31;;;2.87;100.00
80128;BME280;69440;52.118;5.408;2023-11-22T04:53:01;103183.94;;;2.81;100.00
80128;BME280;69440;52.118;5.408;2023-11-22T04:55:30;103185.75;;;2.84;100.00
80128;BME280;69440;52.118;5.408;2023-11-22T04:57:56;103184.03;;;2.89;100.00
80128;BME280;69440;52.118;5.408;2023-11-22T05:00:23;103186.69;;;2.90;100.00
80128;BME280;69440;52.118;5.408;2023-11-22T05:02:51;103172.50;;;2.87;100.00
80128;BME280;69440;52.118;5.408;2023-11-22T05:05:17;103168.09;;;2.89;100.00
80128;BME280;69440;52.118;5.408;2023-11-22T05:07:44;103169.88;;;2.90;100.00
80128;BME280;69440;52.118;5.408;2023-11-22T05:10:13;103174.25;;;2.86;100.00
80128;BME280;69440;52.118;5.408;2023-11-22T05:12:40;103168.03;;;2.84;100.00
80128;BME280;69440;52.118;5.408;2023-11-22T05:15:06;103175.16;;;2.88;100.00
80128;BME280;69440;52.118;5.408;2023-11-22T05:17:34;103176.91;;;2.85;100.00
80128;BME280;69440;52.118;5.408;2023-11-22T05:20:01;103175.13;;;2.84;100.00
80128;BME280;69440;52.118;5.408;2023-11-22T05:22:28;103168.06;;;2.86;100.00
80128;BME280;69440;52.118;5.408;2023-11-22T05:24:55;103168.16;;;2.95;100.00
80128;BME280;69440;52.118;5.408;2023-11-22T05:27:22;103172.56;;;2.94;100.00
80128;BME280;69440;52.118;5.408;2023-11-22T05:29:48;103168.19;;;2.98;100.00
80128;BME280;69440;52.118;5.408;2023-11-22T05:32:20;103172.56;;;2.94;100.00
80128;BME280;69440;52.118;5.408;2023-11-22T05:34:47;103171.69;;;2.94;100.00
80128;BME280;69440;52.118;5.408;2023-11-22T05:37:14;103182.31;;;2.95;100.00
80128;BME280;69440;52.118;5.408;2023-11-22T05:39:40;103170.84;;;2.98;100.00
80128;BME280;69440;52.118;5.408;2023-11-22T05:42:07;103185.88;;;2.99;100.00
80128;BME280;69440;52.118;5.408;2023-11-22T05:44:33;103188.59;;;3.03;100.00
80128;BME280;69440;52.118;5.408;2023-11-22T05:47:00;103185.94;;;3.03;100.00
80128;BME280;69440;52.118;5.408;2023-11-22T05:49:26;103189.47;;;3.04;100.00
80128;BME280;69440;52.118;5.408;2023-11-22T05:51:52;103196.66;;;3.09;100.00
80128;BME280;69440;52.118;5.408;2023-11-22T05:54:19;103201.00;;;3.06;100.00
80128;BME280;69440;52.118;5.408;2023-11-22T05:56:45;103205.44;;;3.05;100.00
80128;BME280;69440;52.118;5.408;2023-11-22T05:59:12;103187.72;;;3.06;100.00
80128;BME280;69440;52.118;5.408;2023-11-22T06:01:39;103190.38;;;3.04;100.00
80128;BME280;69440;52.118;5.408;2023-11-22T06:04:05;103193.91;;;3.03;100.00
80128;BME280;69440;52.118;5.408;2023-11-22T06:06:32;103193.00;;;3.03;100.00
80128;BME280;69440;52.118;5.408;2023-11-22T06:08:58;103198.31;;;3.01;100.00
80128;BME280;69440;52.118;5.408;2023-11-22T06:11:26;103201.81;;;2.97;100.00
80128;BME280;69440;52.118;5.408;2023-11-22T06:13:53;103201.81;;;2.97;100.00
80128;BME280;69440;52.118;5.408;2023-11-22T06:16:19;103202.75;;;3.02;100.00
80128;BME280;69440;52.118;5.408;2023-11-22T06:18:45;103195.63;;;2.98;100.00
80128;BME280;69440;52.118;5.408;2023-11-22T06:21:13;103191.19;;;2.97;100.00
80128;BME280;69440;52.118;5.408;2023-11-22T06:23:39;103198.25;;;2.94;100.00
80128;BME280;69440;52.118;5.408;2023-11-22T06:26:06;103210.66;;;2.98;100.00
80128;BME280;69440;52.118;5.408;2023-11-22T06:28:33;103217.72;;;2.96;100.00
80128;BME280;69440;52.118;5.408;2023-11-22T06:31:01;103231.91;;;2.96;100.00
80128;BME280;69440;52.118;5.408;2023-11-22T06:33:27;103231.00;;;2.96;100.00
80128;BME280;69440;52.118;5.408;2023-11-22T06:35:54;103229.88;;;2.75;100.00
80128;BME280;69440;52.118;5.408;2023-11-22T06:38:20;103229.97;;;2.82;100.00
80128;BME280;69440;52.118;5.408;2023-11-22T06:40:47;103216.81;;;2.92;100.00
80128;BME280;69440;52.118;5.408;2023-11-22T06:43:13;103210.66;;;2.96;100.00
80128;BME280;69440;52.118;5.408;2023-11-22T06:45:39;103201.84;;;3.00;100.00
80128;BME280;69440;52.118;5.408;2023-11-22T06:48:07;103201.84;;;3.02;100.00
80128;BME280;69440;52.118;5.408;2023-11-22T06:50:35;103201.84;;;3.00;100.00
80128;BME280;69440;52.118;5.408;2023-11-22T06:53:01;103192.13;;;3.04;100.00
80128;BME280;69440;52.118;5.408;2023-11-22T06:55:30;103193.88;;;3.02;100.00
80128;BME280;69440;52.118;5.408;2023-11-22T06:57:57;103188.59;;;3.05;100.00
80128;BME280;69440;52.118;5.408;2023-11-22T07:00:23;103187.78;;;3.07;100.00
80128;BME280;69440;52.118;5.408;2023-11-22T07:02:50;103187.69;;;3.03;100.00
80128;BME280;69440;52.118;5.408;2023-11-22T07:05:16;103198.31;;;3.03;100.00
80128;BME280;69440;52.118;5.408;2023-11-22T07:07:43;103195.66;;;3.01;100.00
80128;BME280;69440;52.118;5.408;2023-11-22T07:10:09;103201.06;;;3.09;100.00
80128;BME280;69440;52.118;5.408;2023-11-22T07:12:37;103204.50;;;3.00;100.00
80128;BME280;69440;52.118;5.408;2023-11-22T07:15:06;103216.06;;;3.05;100.00
80128;BME280;69440;52.118;5.408;2023-11-22T07:17:33;103215.22;;;3.08;100.00
80128;BME280;69440;52.118;5.408;2023-11-22T07:20:00;103221.44;;;3.08;100.00
80128;BME280;69440;52.118;5.408;2023-11-22T07:22:27;103222.34;;;3.10;100.00
80128;BME280;69440;52.118;5.408;2023-11-22T07:24:54;103221.50;;;3.15;100.00
80128;BME280;69440;52.118;5.408;2023-11-22T07:27:21;103210.88;;;3.16;100.00
80128;BME280;69440;52.118;5.408;2023-11-22T07:29:48;103204.69;;;3.17;100.00
80128;BME280;69440;52.118;5.408;2023-11-22T07:32:18;103202.00;;;3.14;100.00
80128;BME280;69440;52.118;5.408;2023-11-22T07:34:46;103210.75;;;3.05;100.00
80128;BME280;69440;52.118;5.408;2023-11-22T07:37:13;103211.59;;;3.03;100.00
80128;BME280;69440;52.118;5.408;2023-11-22T07:39:41;103212.44;;;2.99;100.00
80128;BME280;69440;52.118;5.408;2023-11-22T07:42:09;103228.44;;;3.03;100.00
80128;BME280;69440;52.118;5.408;2023-11-22T07:44:36;103227.56;;;3.06;100.00
80128;BME280;69440;52.118;5.408;2023-11-22T07:47:04;103229.34;;;3.05;100.00
80128;BME280;69440;52.118;5.408;2023-11-22T07:49:39;103227.56;;;3.04;100.00
80128;BME280;69440;52.118;5.408;2023-11-22T07:52:05;103220.53;;;3.06;100.00
80128;BME280;69440;52.118;5.408;2023-11-22T07:54:33;103219.59;;;3.06;100.00
80128;BME280;69440;52.118;5.408;2023-11-22T07:57:01;103218.78;;;3.08;100.00
80128;BME280;69440;52.118;5.408;2023-11-22T07:59:28;103225.03;;;3.15;100.00
80128;BME280;69440;52.118;5.408;2023-11-22T08:01:54;103228.59;;;3.17;100.00
80128;BME280;69440;52.118;5.408;2023-11-22T08:04:21;103243.66;;;3.18;100.00
80128;BME280;69440;52.118;5.408;2023-11-22T08:06:49;103254.31;;;3.21;100.00
80128;BME280;69440;52.118;5.408;2023-11-22T08:09:16;103257.00;;;3.23;100.00
80128;BME280;69440;52.118;5.408;2023-11-22T08:11:43;103266.78;;;3.27;100.00
80128;BME280;69440;52.118;5.408;2023-11-22T08:14:09;103277.44;;;3.31;100.00
80128;BME280;69440;52.118;5.408;2023-11-22T08:16:36;103283.63;;;3.30;100.00
80128;BME280;69440;52.118;5.408;2023-11-22T08:19:05;103287.19;;;3.31;100.00
80128;BME280;69440;52.118;5.408;2023-11-22T08:21:34;103287.28;;;3.38;100.00
80128;BME280;69440;52.118;5.408;2023-11-22T08:24:01;103276.66;;;3.40;100.00
80128;BME280;69440;52.118;5.408;2023-11-22T08:26:29;103280.22;;;3.42;100.00
80128;BME280;69440;52.118;5.408;2023-11-22T08:28:55;103288.22;;;3.43;100.00
80128;BME280;69440;52.118;5.408;2023-11-22T08:31:22;103279.44;;;3.54;100.00
80128;BME280;69440;52.118;5.408;2023-11-22T08:33:48;103280.31;;;3.53;100.00
80128;BME280;69440;52.118;5.408;2023-11-22T08:36:15;103278.59;;;3.58;100.00
80128;BME280;69440;52.118;5.408;2023-11-22T08:38:41;103284.91;;;3.67;100.00
80128;BME280;69440;52.118;5.408;2023-11-22T08:41:10;103276.00;;;3.67;100.00
80128;BME280;69440;52.118;5.408;2023-11-22T08:43:40;103275.22;;;3.72;100.00
80128;BME280;69440;52.118;5.408;2023-11-22T08:46:07;103276.97;;;3.73;100.00
80128;BME280;69440;52.118;5.408;2023-11-22T08:48:41;103281.47;;;3.81;100.00
80128;BME280;69440;52.118;5.408;2023-11-22T08:51:08;103275.28;;;3.85;100.00
80128;BME280;69440;52.118;5.408;2023-11-22T08:53:37;103274.44;;;3.89;100.00
80128;BME280;69440;52.118;5.408;2023-11-22T08:56:04;103276.25;;;3.94;100.00
80128;BME280;69440;52.118;5.408;2023-11-22T08:58:32;103274.50;;;3.96;100.00
80128;BME280;69440;52.118;5.408;2023-11-22T09:01:00;103267.44;;;3.98;100.00
80128;BME280;69440;52.118;5.408;2023-11-22T09:03:26;103274.53;;;3.99;100.00
80128;BME280;69440;52.118;5.408;2023-11-22T09:05:54;103273.69;;;4.02;100.00
80128;BME280;69440;52.118;5.408;2023-11-22T09:08:21;103278.16;;;4.09;100.00
80128;BME280;69440;52.118;5.408;2023-11-22T09:10:53;103271.97;;;4.12;100.00
80128;BME280;69440;52.118;5.408;2023-11-22T09:13:20;103278.19;;;4.17;100.00
80128;BME280;69440;52.118;5.408;2023-11-22T09:15:48;103278.25;;;4.24;100.00
80128;BME280;69440;52.118;5.408;2023-11-22T09:18:15;103272.97;;;4.29;100.00
80128;BME280;69440;52.118;5.408;2023-11-22T09:20:42;103277.34;;;4.24;100.00
80128;BME280;69440;52.118;5.408;2023-11-22T09:23:11;103273.00;;;4.35;100.00
80128;BME280;69440;52.118;5.408;2023-11-22T09:25:37;103284.56;;;4.39;100.00
80128;BME280;69440;52.118;5.408;2023-11-22T09:28:05;103276.59;;;4.40;100.00
80128;BME280;69440;52.118;5.408;2023-11-22T09:30:34;103283.69;;;4.43;100.00
80128;BME280;69440;52.118;5.408;2023-11-22T09:33:12;103297.88;;;4.40;100.00
80128;BME280;69440;52.118;5.408;2023-11-22T09:35:43;103290.81;;;4.44;100.00
80128;BME280;69440;52.118;5.408;2023-11-22T09:38:11;103285.53;;;4.51;100.00
80128;BME280;69440;52.118;5.408;2023-11-22T09:40:46;103288.19;;;4.56;100.00
80128;BME280;69440;52.118;5.408;2023-11-22T09:43:15;103282.03;;;4.61;100.00
80128;BME280;69440;52.118;5.408;2023-11-22T09:45:45;103275.84;;;4.65;100.00
80128;BME280;69440;52.118;5.408;2023-11-22T09:48:19;103287.44;;;4.75;100.00
80128;BME280;69440;52.118;5.408;2023-11-22T09:55:54;103283.91;;;4.87;100.00
80128;BME280;69440;52.118;5.408;2023-11-22T09:58:22;103276.84;;;4.92;100.00
80128;BME280;69440;52.118;5.408;2023-11-22T10:00:48;103289.31;;;4.96;100.00
80128;BME280;69440;52.118;5.408;2023-11-22T10:03:16;103282.22;;;5.04;100.00
80128;BME280;69440;52.118;5.408;2023-11-22T10:05:44;103283.13;;;5.06;100.00
80128;BME280;69440;52.118;5.408;2023-11-22T10:08:11;103268.91;;;5.10;100.00
80128;BME280;69440;52.118;5.408;2023-11-22T10:10:38;103267.13;;;5.14;100.00
80128;BME280;69440;52.118;5.408;2023-11-22T10:13:06;103264.47;;;5.17;100.00
80128;BME280;69440;52.118;5.408;2023-11-22T10:15:32;103252.06;;;5.20;100.00
80128;BME280;69440;52.118;5.408;2023-11-22T10:17:59;103240.53;;;5.21;100.00
80128;BME280;69440;52.118;5.408;2023-11-22T10:20:39;103254.75;;;5.22;100.00
80128;BME280;69440;52.118;5.408;2023-11-22T10:23:10;103264.47;;;5.20;100.00
80128;BME280;69440;52.118;5.408;2023-11-22T10:25:43;103260.97;;;5.22;100.00
80128;BME280;69440;52.118;5.408;2023-11-22T10:28:10;103252.97;;;5.22;100.00
80128;BME280;69440;52.118;5.408;2023-11-22T10:30:37;103253.84;;;5.23;100.00
80128;BME280;69440;52.118;5.408;2023-11-22T10:33:03;103254.75;;;5.25;100.00
80128;BME280;69440;52.118;5.408;2023-11-22T10:35:30;103241.44;;;5.34;100.00
80128;BME280;69440;52.118;5.408;2023-11-22T10:37:59;103238.75;;;5.43;100.00
80128;BME280;69440;52.118;5.408;2023-11-22T10:40:29;103232.56;;;5.53;100.00
80128;BME280;69440;52.118;5.408;2023-11-22T10:42:56;103234.34;;;5.60;100.00
80128;BME280;69440;52.118;5.408;2023-11-22T10:45:22;103232.56;;;5.76;100.00
80128;BME280;69440;52.118;5.408;2023-11-22T10:47:52;103226.34;;;5.86;100.00
80128;BME280;69440;52.118;5.408;2023-11-22T10:50:18;103222.81;;;5.92;100.00
80128;BME280;69440;52.118;5.408;2023-11-22T10:52:47;103214.78;;;5.95;100.00
80128;BME280;69440;52.118;5.408;2023-11-22T10:55:20;103221.00;;;6.02;100.00
80128;BME280;69440;52.118;5.408;2023-11-22T10:57:51;103223.66;;;6.09;100.00
80128;BME280;69440;52.118;5.408;2023-11-22T11:00:22;103208.53;;;6.13;100.00
80128;BME280;69440;52.118;5.408;2023-11-22T11:02:54;103221.88;;;6.17;100.00
80128;BME280;69440;52.118;5.408;2023-11-22T11:05:30;103220.06;;;6.24;100.00
80128;BME280;69440;52.118;5.408;2023-11-22T11:08:01;103215.56;;;6.46;100.00
80128;BME280;69440;52.118;5.408;2023-11-22T11:10:30;103219.09;;;6.54;100.00
80128;BME280;69440;52.118;5.408;2023-11-22T11:12:57;103198.53;;;6.67;100.00
80128;BME280;69440;52.118;5.408;2023-11-22T11:15:24;103181.56;;;6.81;100.00
80128;BME280;69440;52.118;5.408;2023-11-22T11:17:51;103166.25;;;7.08;100.00
80128;BME280;69440;52.118;5.408;2023-11-22T11:20:18;103146.44;;;7.33;100.00
80128;BME280;69440;52.118;5.408;2023-11-22T11:22:49;103152.66;;;7.38;100.00
80128;BME280;69440;52.118;5.408;2023-11-22T11:25:16;103145.56;;;7.30;100.00
80128;BME280;69440;52.118;5.408;2023-11-22T11:27:55;103138.53;;;7.18;100.00
80128;BME280;69440;52.118;5.408;2023-11-22T11:32:58;103143.28;;;6.78;100.00
80128;BME280;69440;52.118;5.408;2023-11-22T11:35:49;103136.22;;;6.63;100.00
80128;BME280;69440;52.118;5.408;2023-11-22T11:38:19;103124.75;;;6.49;100.00
80128;BME280;69440;52.118;5.408;2023-11-22T11:40:48;103118.53;;;6.45;100.00
80128;BME280;69440;52.118;5.408;2023-11-22T11:43:15;103108.75;;;6.38;100.00
80128;BME280;69440;52.118;5.408;2023-11-22T11:45:42;103105.19;;;6.38;100.00
80128;BME280;69440;52.118;5.408;2023-11-22T11:48:18;103113.19;;;6.44;100.00
80128;BME280;69440;52.118;5.408;2023-11-22T11:50:46;103115.81;;;6.51;100.00
80128;BME280;69440;52.118;5.408;2023-11-22T11:53:13;103118.41;;;6.65;100.00
80128;BME280;69440;52.118;5.408;2023-11-22T11:55:39;103122.75;;;6.84;100.00
80128;BME280;69440;52.118;5.408;2023-11-22T11:58:07;103117.13;;;7.21;100.00
80128;BME280;69440;52.118;5.408;2023-11-22T12:00:38;103109.25;;;7.98;100.00
80128;BME280;69440;52.118;5.408;2023-11-22T12:03:07;103099.31;;;9.30;100.00
80128;BME280;69440;52.118;5.408;2023-11-22T12:05:38;103101.53;;;10.03;100.00
80128;BME280;69440;52.118;5.408;2023-11-22T12:08:05;103100.53;;;10.51;100.00
80128;BME280;69440;52.118;5.408;2023-11-22T12:10:31;103092.75;;;11.15;100.00
80128;BME280;69440;52.118;5.408;2023-11-22T12:12:58;103084.31;;;11.63;99.05
80128;BME280;69440;52.118;5.408;2023-11-22T12:15:25;103084.88;;;12.08;95.04
80128;BME280;69440;52.118;5.408;2023-11-22T12:17:51;103083.69;;;12.48;90.62
80128;BME280;69440;52.118;5.408;2023-11-22T12:20:21;103087.25;;;12.78;91.60
80128;BME280;69440;52.118;5.408;2023-11-22T12:22:48;103081.56;;;12.59;86.76
80128;BME280;69440;52.118;5.408;2023-11-22T12:25:15;103073.88;;;12.16;87.87
80128;BME280;69440;52.118;5.408;2023-11-22T12:27:42;103077.06;;;12.30;90.56
80128;BME280;69440;52.118;5.408;2023-11-22T12:30:30;103061.66;;;13.44;90.63
80128;BME280;69440;52.118;5.408;2023-11-22T12:33:05;103061.25;;;14.27;85.50
80128;BME280;69440;52.118;5.408;2023-11-22T12:35:34;103066.13;;;13.94;79.63
80128;BME280;69440;52.118;5.408;2023-11-22T12:38:02;103060.25;;;12.78;82.89
80128;BME280;69440;52.118;5.408;2023-11-22T12:40:31;103065.50;;;11.95;89.14
80128;BME280;69440;52.118;5.408;2023-11-22T12:43:00;103065.72;;;10.84;90.97
80128;BME280;69440;52.118;5.408;2023-11-22T12:45:28;103056.69;;;10.06;95.21
80128;BME280;69440;52.118;5.408;2023-11-22T12:47:56;103066.56;;;9.61;98.72
80128;BME280;69440;52.118;5.408;2023-11-22T12:52:58;103060.63;;;8.93;100.00
80128;BME280;69440;52.118;5.408;2023-11-22T12:55:25;103052.72;;;8.82;100.00
80128;BME280;69440;52.118;5.408;2023-11-22T12:57:57;103045.28;;;8.44;100.00
80128;BME280;69440;52.118;5.408;2023-11-22T13:00:25;103057.09;;;8.25;100.00
80128;BME280;69440;52.118;5.408;2023-11-22T13:02:51;103047.59;;;8.02;100.00